Time;durP1;ratioP1;P1;durP2;ratioP2;P2;SDS_P1;SDS_P2;PMS_P1;PMS_P2;Temp;Humidity;BMP_temperature;BMP_pressure;BME280_temperature;BME280_humidity;BME280_pressure;Samples;Min_cycle;Max_cycle;Signal;HPM_P1;HPM_P2
2022/05/12 00:01:58;;;;;;;0.00;0.00;;;20.00;83.40;;;;;;4999227;28;20026;-79
2022/05/12 00:04:25;;;;;;;0.00;0.00;;;20.00;84.40;;;;;;4999219;28;20050;-80
2022/05/12 00:06:51;;;;;;;0.00;0.00;;;19.90;84.10;;;;;;4999165;28;20022;-80
2022/05/12 00:09:16;;;;;;;0.00;0.00;;;19.80;84.50;;;;;;4999846;28;20026;-80
2022/05/12 00:11:42;;;;;;;0.00;0.00;;;19.80;84.60;;;;;;5003027;28;20310;-81
2022/05/12 00:14:08;;;;;;;0.00;0.00;;;19.70;85.20;;;;;;5002452;28;20048;-79
2022/05/12 00:16:35;;;;;;;0.00;0.00;;;19.70;84.90;;;;;;5018209;28;20036;-80
2022/05/12 00:19:00;;;;;;;0.00;0.00;;;19.60;85.20;;;;;;5002449;28;20049;-81
2022/05/12 00:21:26;;;;;;;0.00;0.00;;;19.60;85.10;;;;;;5001252;28;20301;-80
2022/05/12 00:23:58;;;;;;;0.00;0.00;;;19.60;85.70;;;;;;5003070;28;20018;-81
2022/05/12 00:26:28;;;;;;;0.00;0.00;;;19.60;85.20;;;;;;5002277;28;20113;-81
2022/05/12 00:28:57;;;;;;;0.00;0.00;;;19.50;87.10;;;;;;5017842;28;20026;-80
2022/05/12 00:31:23;;;;;;;0.00;0.00;;;19.40;86.00;;;;;;5000915;28;20034;-81
2022/05/12 00:33:49;;;;;;;0.00;0.00;;;19.40;85.80;;;;;;5002626;28;20042;-81
2022/05/12 00:36:15;;;;;;;0.00;0.00;;;19.30;85.20;;;;;;5017585;28;20213;-81
2022/05/12 00:38:41;;;;;;;0.00;0.00;;;19.30;86.10;;;;;;5002943;28;20022;-82
2022/05/12 00:41:08;;;;;;;0.00;0.00;;;19.30;85.90;;;;;;5002165;28;20028;-82
2022/05/12 00:43:44;;;;;;;0.00;0.00;;;19.30;86.10;;;;;;5001759;28;20026;-81
2022/05/12 00:46:22;;;;;;;0.00;0.00;;;19.30;85.10;;;;;;5002190;28;20246;-82
2022/05/12 00:49:06;;;;;;;0.00;0.00;;;19.30;85.50;;;;;;5002660;28;20033;-81
2022/05/12 00:51:54;;;;;;;0.00;0.00;;;19.30;86.40;;;;;;5002643;28;20088;-79
2022/05/12 00:54:30;;;;;;;;;;;19.30;85.20;;;;;;5001322;28;20122;-81
2022/05/12 00:56:59;;;;;;;0.00;0.00;;;19.30;87.30;;;;;;5002409;28;19912;-80
2022/05/12 00:59:32;;;;;;;0.00;0.00;;;19.20;88.40;;;;;;5001297;28;20506;-78
2022/05/12 01:01:59;;;;;;;0.00;0.00;;;19.20;89.20;;;;;;5002142;28;20030;-80
2022/05/12 01:04:26;;;;;;;0.00;0.00;;;19.10;89.00;;;;;;5001866;28;20046;-80
2022/05/12 01:06:52;;;;;;;0.00;0.00;;;19.10;89.30;;;;;;5002107;28;20034;-81
2022/05/12 01:09:20;;;;;;;0.00;0.00;;;19.10;89.00;;;;;;5001760;28;20089;-81
2022/05/12 01:11:50;;;;;;;0.00;0.00;;;19.10;89.20;;;;;;5001929;28;20027;-81
2022/05/12 01:14:16;;;;;;;0.00;0.00;;;19.10;90.00;;;;;;5001972;28;20048;-80
2022/05/12 01:16:52;;;;;;;0.00;0.00;;;19.00;90.10;;;;;;5017261;28;20289;-80
2022/05/12 01:19:27;;;;;;;0.00;0.00;;;19.00;90.20;;;;;;5016650;28;20049;-78
2022/05/12 01:21:54;;;;;;;0.00;0.00;;;19.00;90.50;;;;;;5000887;28;20287;-79
2022/05/12 01:24:23;;;;;;;0.00;0.00;;;18.90;90.50;;;;;;5001750;28;20158;-80
2022/05/12 01:26:48;;;;;;;0.00;0.00;;;18.90;90.40;;;;;;5001855;28;20037;-79
2022/05/12 01:29:14;;;;;;;0.00;0.00;;;18.80;90.80;;;;;;5016569;28;20041;-80
2022/05/12 01:31:40;;;;;;;0.00;0.00;;;18.70;91.10;;;;;;5000610;28;20209;-79
2022/05/12 01:34:08;;;;;;;0.00;0.00;;;18.60;91.20;;;;;;5016307;28;20361;-80
2022/05/12 01:36:36;;;;;;;0.00;0.00;;;18.60;91.40;;;;;;5000789;28;20323;-78
2022/05/12 01:39:02;;;;;;;0.00;0.00;;;18.60;91.30;;;;;;5001707;28;20049;-79
2022/05/12 01:41:28;;;;;;;0.00;0.00;;;18.60;91.70;;;;;;5001673;28;20178;-80
2022/05/12 01:43:54;;;;;;;0.00;0.00;;;18.60;91.60;;;;;;5016888;28;20226;-80
2022/05/12 01:46:20;;;;;;;0.00;0.00;;;18.60;91.60;;;;;;5016384;28;20026;-79
2022/05/12 01:48:45;;;;;;;0.00;0.00;;;18.60;91.60;;;;;;5000333;28;20029;-80
2022/05/12 01:51:12;;;;;;;0.00;0.00;;;18.60;91.80;;;;;;5000760;28;20050;-80
2022/05/12 01:53:38;;;;;;;0.00;0.00;;;18.60;91.90;;;;;;5001426;28;20095;-80
2022/05/12 01:56:05;;;;;;;0.00;0.00;;;18.60;92.10;;;;;;5016068;28;20089;-80
2022/05/12 01:58:31;;;;;;;0.00;0.00;;;18.50;92.10;;;;;;5000275;28;20030;-78
2022/05/12 02:00:57;;;;;;;0.00;0.00;;;18.50;92.50;;;;;;5000091;28;20217;-80
2022/05/12 02:03:23;;;;;;;0.00;0.00;;;18.40;92.50;;;;;;5000861;28;20014;-79
2022/05/12 02:05:49;;;;;;;0.00;0.00;;;18.30;92.50;;;;;;5001165;28;20038;-80
2022/05/12 02:08:17;;;;;;;0.00;0.00;;;18.30;92.90;;;;;;5000697;28;20115;-78
2022/05/12 02:10:47;;;;;;;0.00;0.00;;;18.30;93.00;;;;;;5001399;28;20068;-80
2022/05/12 02:13:14;;;;;;;0.00;0.00;;;18.20;93.20;;;;;;5000807;28;20081;-80
2022/05/12 02:15:41;;;;;;;0.00;0.00;;;18.20;93.20;;;;;;5000889;28;20029;-79
2022/05/12 02:18:08;;;;;;;0.00;0.00;;;18.20;93.30;;;;;;5000452;28;20170;-79
2022/05/12 02:20:53;;;;;;;0.00;0.00;;;18.10;93.20;;;;;;5000633;28;20014;-79
2022/05/12 02:23:19;;;;;;;0.00;0.00;;;18.10;93.20;;;;;;5000150;28;20025;-79
2022/05/12 02:25:45;;;;;;;0.00;0.00;;;18.10;93.20;;;;;;5000591;28;20093;-78
2022/05/12 02:28:11;;;;;;;0.00;0.00;;;18.20;93.50;;;;;;5000316;28;20030;-80
2022/05/12 02:30:37;;;;;;;0.00;0.00;;;18.10;93.70;;;;;;5000594;28;20022;-79
2022/05/12 02:33:03;;;;;;;0.00;0.00;;;18.20;93.80;;;;;;4999633;28;20073;-79
2022/05/12 02:35:30;;;;;;;0.00;0.00;;;18.10;93.90;;;;;;5000543;28;20301;-78
2022/05/12 02:37:56;;;;;;;0.00;0.00;;;18.10;94.10;;;;;;5000147;28;20341;-78
2022/05/12 02:40:25;;;;;;;0.00;0.00;;;18.10;94.30;;;;;;5000107;28;20105;-78
2022/05/12 02:42:50;;;;;;;0.00;0.00;;;18.10;94.70;;;;;;5000498;28;20019;-78
2022/05/12 02:45:16;;;;;;;0.00;0.00;;;18.10;94.70;;;;;;5014994;28;20414;-79
2022/05/12 02:47:43;;;;;;;0.00;0.00;;;18.10;95.00;;;;;;5000490;28;20037;-81
2022/05/12 02:50:10;;;;;;;0.00;0.00;;;18.10;95.10;;;;;;4999747;28;20034;-79
2022/05/12 02:52:35;;;;;;;0.00;0.00;;;18.00;95.00;;;;;;4998988;28;20018;-80
2022/05/12 02:55:01;;;;;;;0.00;0.00;;;17.90;95.10;;;;;;5014970;28;20305;-76
2022/05/12 02:57:27;;;;;;;0.00;0.00;;;17.90;95.20;;;;;;5015170;28;20328;-79
2022/05/12 02:59:53;;;;;;;0.00;0.00;;;17.90;95.40;;;;;;5000177;28;20022;-79
2022/05/12 03:02:19;;;;;;;0.00;0.00;;;17.80;95.70;;;;;;4999239;28;20081;-79
2022/05/12 03:04:44;;;;;;;0.00;0.00;;;17.80;95.50;;;;;;5000143;28;20042;-75
2022/05/12 03:07:10;;;;;;;0.00;0.00;;;17.80;95.90;;;;;;4999513;28;20081;-79
2022/05/12 03:09:37;;;;;;;0.00;0.00;;;17.80;96.00;;;;;;4999436;28;20064;-76
2022/05/12 03:12:03;;;;;;;0.00;0.00;;;17.70;96.10;;;;;;4999574;28;20081;-79
2022/05/12 03:14:29;;;;;;;0.00;0.00;;;17.70;96.10;;;;;;4999863;28;20018;-79
2022/05/12 03:16:55;;;;;;;0.00;0.00;;;17.70;96.30;;;;;;5014894;28;20026;-78
2022/05/12 03:19:22;;;;;;;0.00;0.00;;;17.70;96.70;;;;;;4999406;28;20365;-79
2022/05/12 03:21:48;;;;;;;0.00;0.00;;;17.70;96.70;;;;;;4999768;28;20045;-80
2022/05/12 03:24:16;;;;;;;0.00;0.00;;;17.70;96.60;;;;;;4999431;28;20021;-80
2022/05/12 03:26:42;;;;;;;0.00;0.00;;;17.70;96.90;;;;;;4998553;28;20030;-80
2022/05/12 03:29:07;;;;;;;0.00;0.00;;;17.70;97.00;;;;;;4999358;28;20100;-79
2022/05/12 03:31:33;;;;;;;0.00;0.00;;;17.70;97.10;;;;;;4999768;28;20069;-80
2022/05/12 03:34:02;;;;;;;0.00;0.00;;;17.70;97.10;;;;;;4999407;28;20314;-80
2022/05/12 03:36:28;;;;;;;0.00;0.00;;;17.80;97.20;;;;;;4999480;28;20050;-81
2022/05/12 03:38:53;;;;;;;0.00;0.00;;;17.80;97.40;;;;;;4998207;28;20030;-79
2022/05/12 03:41:19;;;;;;;0.00;0.00;;;17.80;97.40;;;;;;4999251;28;20022;-79
2022/05/12 03:46:32;;;;;;;0.00;0.00;;;17.80;97.50;;;;;;5003457;28;20068;-80
2022/05/12 03:49:01;;;;;;;0.00;0.00;;;17.70;97.70;;;;;;5003348;28;20030;-78
2022/05/12 03:51:26;;;;;;;0.00;0.00;;;17.70;97.90;;;;;;5003275;28;20034;-79
2022/05/12 03:53:52;;;;;;;0.00;0.00;;;17.70;98.00;;;;;;5002448;28;20026;-81
2022/05/12 03:56:18;;;;;;;0.00;0.00;;;17.60;98.20;;;;;;5002714;28;20049;-79
2022/05/12 03:58:44;;;;;;;0.00;0.00;;;17.70;98.40;;;;;;5003176;28;20022;-76
2022/05/12 04:01:10;;;;;;;0.00;0.00;;;17.70;98.40;;;;;;5017964;28;20022;-79
2022/05/12 04:03:36;;;;;;;0.00;0.00;;;17.70;98.60;;;;;;5017946;28;20144;-79
2022/05/12 04:06:05;;;;;;;0.00;0.00;;;17.70;98.70;;;;;;5002994;28;20022;-75
2022/05/12 04:08:31;;;;;;;0.00;0.00;;;17.70;98.70;;;;;;5003569;28;20029;-81
2022/05/12 04:10:57;;;;;;;0.00;0.00;;;17.70;98.90;;;;;;5003802;28;20022;-81
2022/05/12 04:13:23;;;;;;;0.00;0.00;;;17.70;98.90;;;;;;5002892;28;20081;-82
2022/05/12 04:15:49;;;;;;;0.00;0.00;;;17.80;99.20;;;;;;5003272;28;20229;-82
2022/05/12 04:18:15;;;;;;;0.00;0.00;;;17.80;99.30;;;;;;5002675;28;20029;-78
2022/05/12 04:20:41;;;;;;;0.00;0.00;;;17.80;99.40;;;;;;5003179;28;20246;-81
2022/05/12 04:23:06;;;;;;;0.00;0.00;;;17.80;99.50;;;;;;5002450;28;20117;-81
2022/05/12 04:25:32;;;;;;;0.00;0.00;;;17.90;99.60;;;;;;5002716;28;20026;-81
2022/05/12 04:27:58;;;;;;;0.00;0.00;;;17.90;99.50;;;;;;5002845;28;20286;-82
2022/05/12 04:30:25;;;;;;;0.00;0.00;;;17.90;99.70;;;;;;5002540;28;20258;-78
2022/05/12 04:32:52;;;;;;;0.00;0.00;;;18.00;99.70;;;;;;5003162;28;20030;-78
2022/05/12 04:35:18;;;;;;;0.00;0.00;;;18.00;99.80;;;;;;5000805;28;20018;-80
2022/05/12 04:37:54;;;;;;;0.00;0.00;;;18.00;99.90;;;;;;5001783;28;20118;-80
2022/05/12 04:40:27;;;;;;;0.00;0.00;;;18.10;99.90;;;;;;5002296;28;20045;-80
2022/05/12 04:42:55;;;;;;;0.00;0.00;;;18.10;99.90;;;;;;5002999;28;20014;-80
2022/05/12 04:45:23;;;;;;;0.00;0.00;;;18.20;99.90;;;;;;5000926;28;20022;-78
2022/05/12 04:47:50;;;;;;;0.00;0.00;;;18.20;99.90;;;;;;5001750;28;20026;-82
2022/05/12 04:50:20;;;;;;;0.00;0.00;;;18.30;99.90;;;;;;5001223;28;20029;-78
2022/05/12 04:52:47;;;;;;;0.00;0.00;;;18.40;99.90;;;;;;5002663;28;20026;-81
2022/05/12 04:55:13;;;;;;;0.00;0.00;;;18.40;99.90;;;;;;5002181;28;20018;-77
2022/05/12 04:57:41;;;;;;;0.00;0.00;;;18.40;99.90;;;;;;5002731;28;20037;-83
2022/05/12 05:00:09;;;;;;;0.00;0.00;;;18.40;99.90;;;;;;5002067;28;20022;-79
2022/05/12 05:02:35;;;;;;;0.00;0.00;;;18.50;99.90;;;;;;5002318;28;20037;-81
2022/05/12 05:05:01;;;;;;;0.00;0.00;;;18.50;99.90;;;;;;5002481;28;20265;-78
2022/05/12 05:07:27;;;;;;;0.00;0.00;;;18.50;99.40;;;;;;5001707;28;20312;-81
2022/05/12 05:09:53;;;;;;;0.00;0.00;;;18.50;99.30;;;;;;5002571;28;20025;-81
2022/05/12 05:12:19;;;;;;;0.00;0.00;;;18.60;99.30;;;;;;5001624;28;20122;-82
2022/05/12 05:14:45;;;;;;;0.00;0.00;;;18.70;99.10;;;;;;5001145;28;20018;-78
2022/05/12 05:17:11;;;;;;;0.00;0.00;;;18.70;98.80;;;;;;5001896;28;20030;-81
2022/05/12 05:19:37;;;;;;;0.00;0.00;;;18.80;99.30;;;;;;5002715;28;20093;-82
2022/05/12 05:22:03;;;;;;;0.00;0.00;;;18.80;98.80;;;;;;5001086;28;20065;-80
2022/05/12 05:24:30;;;;;;;0.00;0.00;;;18.80;98.60;;;;;;5017234;28;20025;-79
2022/05/12 05:26:55;;;;;;;0.00;0.00;;;18.90;98.60;;;;;;5002324;28;20026;-78
2022/05/12 05:29:21;;;;;;;0.00;0.00;;;18.90;98.90;;;;;;5001798;28;20297;-82
2022/05/12 05:31:47;;;;;;;0.00;0.00;;;19.00;99.00;;;;;;5002022;28;20032;-79
2022/05/12 05:34:13;;;;;;;0.00;0.00;;;19.00;99.00;;;;;;5016726;28;20049;-82
2022/05/12 05:36:42;;;;;;;0.00;0.00;;;19.10;98.90;;;;;;5001481;28;20033;-82
2022/05/12 05:39:08;;;;;;;0.00;0.00;;;19.10;98.70;;;;;;5001495;28;20014;-85
2022/05/12 05:41:36;;;;;;;0.00;0.00;;;19.20;98.70;;;;;;5001829;28;20175;-81
2022/05/12 05:44:02;;;;;;;0.00;0.00;;;19.30;98.70;;;;;;4999402;28;20356;-80
2022/05/12 05:46:28;;;;;;;0.00;0.00;;;19.30;98.50;;;;;;4999863;28;20026;-80
2022/05/12 05:48:55;;;;;;;0.00;0.00;;;19.40;98.60;;;;;;5000330;28;20022;-81
2022/05/12 05:54:05;;;;;;;0.00;0.00;;;19.50;98.40;;;;;;5000615;28;20261;-80
2022/05/12 05:56:31;;;;;;;0.00;0.00;;;19.60;98.50;;;;;;5000059;28;20313;-79
2022/05/12 05:58:58;;;;;;;0.00;0.00;;;19.70;98.60;;;;;;5000125;28;20289;-77
2022/05/12 06:01:24;;;;;;;0.00;0.00;;;19.70;98.30;;;;;;5000084;28;20238;-79
2022/05/12 06:03:50;;;;;;;0.00;0.00;;;19.70;98.20;;;;;;5001555;28;20050;-80
2022/05/12 06:06:16;;;;;;;0.00;0.00;;;19.80;98.00;;;;;;4999854;28;20026;-81
2022/05/12 06:09:02;;;;;;;0.00;0.00;;;19.90;97.90;;;;;;5000794;28;20210;-82
2022/05/12 06:11:48;;;;;;;0.00;0.00;;;20.00;97.80;;;;;;5001768;28;20344;-82
2022/05/12 06:14:14;;;;;;;0.00;0.00;;;20.20;97.70;;;;;;5002292;28;20068;-81
2022/05/12 06:16:40;;;;;;;0.00;0.00;;;20.60;98.30;;;;;;5001931;28;20034;-80
2022/05/12 06:19:05;;;;;;;0.00;0.00;;;21.40;97.70;;;;;;5000998;28;20023;-77
2022/05/12 06:21:34;;;;;;;0.00;0.00;;;22.10;95.40;;;;;;5001681;28;20286;-81
2022/05/12 06:24:00;;;;;;;0.00;0.00;;;22.90;94.70;;;;;;5001568;28;20045;-82
2022/05/12 06:26:25;;;;;;;0.00;0.00;;;23.50;92.50;;;;;;5000924;28;20022;-80
2022/05/12 06:28:51;;;;;;;0.00;0.00;;;24.00;91.60;;;;;;5001208;28;20022;-85
2022/05/12 06:31:24;;;;;;;0.00;0.00;;;24.60;88.50;;;;;;5015724;28;20098;-81
2022/05/12 06:33:53;;;;;;;0.00;0.00;;;25.00;87.40;;;;;;4999951;28;20310;-82
2022/05/12 06:36:19;;;;;;;0.00;0.00;;;25.10;83.70;;;;;;5000551;28;20022;-75
2022/05/12 06:38:45;;;;;;;0.00;0.00;;;25.40;83.60;;;;;;5001072;28;20055;-76
2022/05/12 06:41:12;;;;;;;0.00;0.00;;;25.50;84.30;;;;;;5000720;28;20022;-82
2022/05/12 06:43:38;;;;;;;0.00;0.00;;;25.80;78.60;;;;;;5000728;28;20294;-80
2022/05/12 06:46:05;;;;;;;0.00;0.00;;;26.00;78.10;;;;;;5016249;28;20030;-84
2022/05/12 06:48:31;;;;;;;0.00;0.00;;;26.20;79.90;;;;;;5001897;28;20026;-84
2022/05/12 06:50:56;;;;;;;0.00;0.00;;;26.50;78.10;;;;;;5016797;28;20030;-84
2022/05/12 06:53:22;;;;;;;0.00;0.00;;;26.80;72.30;;;;;;5002506;28;20288;-86
2022/05/12 06:55:48;;;;;;;0.00;0.00;;;27.10;72.20;;;;;;5005929;28;20026;-85
2022/05/12 06:58:17;;;;;;;0.00;0.00;;;27.10;72.80;;;;;;5005971;28;20397;-77
2022/05/12 07:00:44;;;;;;;0.00;0.00;;;27.10;66.20;;;;;;5005277;28;20305;-84
2022/05/12 07:03:12;;;;;;;0.00;0.00;;;27.10;73.10;;;;;;5000775;28;20027;-78
2022/05/12 07:05:40;;;;;;;0.00;0.00;;;27.20;71.70;;;;;;4999561;28;20060;-78
2022/05/12 07:08:07;;;;;;;0.00;0.00;;;27.00;70.10;;;;;;5015188;28;20050;-80
2022/05/12 07:10:33;;;;;;;0.00;0.00;;;26.60;68.30;;;;;;5000733;28;20034;-79
2022/05/12 07:12:59;;;;;;;0.00;0.00;;;26.10;70.70;;;;;;4999514;28;20026;-81
2022/05/12 07:15:28;;;;;;;0.00;0.00;;;25.80;70.70;;;;;;5016062;28;20301;-78
2022/05/12 07:17:55;;;;;;;0.00;0.00;;;25.40;70.10;;;;;;5016268;28;20195;-78
2022/05/12 07:28:36;;;;;;;0.00;0.00;;;24.50;74.10;;;;;;5002118;28;20026;-79
2022/05/12 07:31:05;;;;;;;0.00;0.00;;;24.30;73.70;;;;;;5002767;28;20019;-80
2022/05/12 07:33:37;;;;;;;0.00;0.00;;;24.20;73.50;;;;;;5002416;28;20014;-79
2022/05/12 07:36:05;;;;;;;0.00;0.00;;;24.10;74.10;;;;;;5001825;28;20089;-80
2022/05/12 07:38:32;;;;;;;0.00;0.00;;;24.00;74.20;;;;;;5001448;28;20022;-79
2022/05/12 07:40:58;;;;;;;0.00;0.00;;;24.00;72.70;;;;;;5000693;28;20121;-77
2022/05/12 07:43:24;;;;;;;0.00;0.00;;;23.90;72.30;;;;;;4999711;28;20253;-79
2022/05/12 07:45:50;;;;;;;0.00;0.00;;;24.00;72.90;;;;;;4999941;28;20026;-79
2022/05/12 07:48:16;;;;;;;0.00;0.00;;;24.00;72.20;;;;;;5000186;28;20022;-78
2022/05/12 07:50:42;;;;;;;0.00;0.00;;;24.00;71.80;;;;;;5000479;28;20305;-81
2022/05/12 07:53:09;;;;;;;0.00;0.00;;;24.00;71.10;;;;;;5000560;28;20018;-80
2022/05/12 07:55:35;;;;;;;0.00;0.00;;;24.00;71.20;;;;;;5001369;28;20158;-76
2022/05/12 07:58:02;;;;;;;0.00;0.00;;;24.00;71.80;;;;;;5000302;28;20023;-78
2022/05/12 08:00:30;;;;;;;0.00;0.00;;;24.00;72.70;;;;;;5000880;28;20074;-81
2022/05/12 08:02:56;;;;;;;;;;;23.90;71.90;;;;;;5001749;28;20014;-78
2022/05/12 08:05:23;;;;;;;0.00;0.00;;;24.00;72.40;;;;;;5000208;28;19924;-80
2022/05/12 08:07:49;;;;;;;0.00;0.00;;;24.00;71.90;;;;;;4998808;28;20218;-78
2022/05/12 08:10:15;;;;;;;0.00;0.00;;;24.00;71.30;;;;;;4999104;28;20325;-80
2022/05/12 08:12:41;;;;;;;0.00;0.00;;;24.00;70.70;;;;;;4998922;28;20090;-78
2022/05/12 08:15:08;;;;;;;0.00;0.00;;;24.20;70.30;;;;;;4999605;28;20030;-78
2022/05/12 08:17:34;;;;;;;;;;;24.20;69.70;;;;;;5000641;28;20086;-80
2022/05/12 08:20:00;;;;;;;0.00;0.00;;;24.30;70.50;;;;;;5015184;28;20037;-78
2022/05/12 08:22:25;;;;;;;0.00;0.00;;;24.30;69.10;;;;;;4999337;28;20360;-77
2022/05/12 08:24:51;;;;;;;0.00;0.00;;;24.50;69.90;;;;;;4999782;28;20023;-77
2022/05/12 08:27:17;;;;;;;0.00;0.00;;;24.70;68.40;;;;;;4998737;28;20051;-77
2022/05/12 08:29:44;;;;;;;0.00;0.00;;;25.00;67.90;;;;;;5014339;28;20030;-77
2022/05/12 08:32:09;;;;;;;0.00;0.00;;;25.30;68.90;;;;;;5002575;28;20042;-79
2022/05/12 08:34:35;;;;;;;0.00;0.00;;;25.70;68.00;;;;;;5002862;28;20065;-75
2022/05/12 08:37:01;;;;;;;0.00;0.00;;;26.50;65.50;;;;;;4997582;28;20053;-78
2022/05/12 08:39:27;;;;;;;0.00;0.00;;;27.40;64.80;;;;;;5000152;28;20023;-79
2022/05/12 08:42:01;;;;;;;0.00;0.00;;;28.10;62.20;;;;;;5001915;28;20182;-80
2022/05/12 08:44:32;;;;;;;0.00;0.00;;;28.30;61.20;;;;;;4999344;28;20022;-78
2022/05/12 08:47:01;;;;;;;0.00;0.00;;;28.50;61.50;;;;;;5000875;28;20041;-77
2022/05/12 08:49:41;;;;;;;0.00;0.00;;;28.40;62.20;;;;;;5000852;28;20171;-78
2022/05/12 08:52:32;;;;;;;0.00;0.00;;;28.70;62.50;;;;;;5001442;28;20069;-78
2022/05/12 08:55:15;;;;;;;0.00;0.00;;;28.90;64.60;;;;;;5001578;28;20022;-78
2022/05/12 08:57:59;;;;;;;0.00;0.00;;;29.00;64.40;;;;;;5016767;28;20033;-78
2022/05/12 09:00:30;;;;;;;0.00;0.00;;;29.40;62.80;;;;;;5000157;28;20390;-76
2022/05/12 09:03:14;;;;;;;0.00;0.00;;;29.80;60.30;;;;;;5016160;28;20053;-76
2022/05/12 09:05:53;;;;;;;0.00;0.00;;;29.70;57.90;;;;;;4999147;28;20421;-77
2022/05/12 09:08:28;;;;;;;0.00;0.00;;;29.50;59.10;;;;;;4999358;28;20019;-77
2022/05/12 09:11:04;;;;;;;0.00;0.00;;;29.70;59.40;;;;;;5000767;28;20019;-76
2022/05/12 09:13:42;;;;;;;0.00;0.00;;;30.40;58.80;;;;;;4999245;28;20089;-78
2022/05/12 09:16:17;;;;;;;0.00;0.00;;;31.20;57.70;;;;;;5000073;28;20270;-77
2022/05/12 09:18:43;;;;;;;0.00;0.00;;;31.90;55.40;;;;;;5015968;28;20022;-79
2022/05/12 09:21:15;;;;;;;0.00;0.00;;;32.40;53.50;;;;;;4999727;28;20018;-82
2022/05/12 09:23:41;;;;;;;0.00;0.00;;;32.80;52.50;;;;;;5000733;28;20053;-80
2022/05/12 09:26:47;;;;;;;0.00;0.00;;;32.70;52.50;;;;;;5000256;28;20190;-77
2022/05/12 09:29:15;;;;;;;;;;;32.20;53.30;;;;;;5000612;28;20034;-81
2022/05/12 09:31:45;;;;;;;0.00;0.00;;;32.40;55.20;;;;;;5000726;28;20021;-78
2022/05/12 09:34:24;;;;;;;0.00;0.00;;;32.60;53.40;;;;;;5000196;28;20046;-79
2022/05/12 09:36:50;;;;;;;0.00;0.00;;;33.20;52.70;;;;;;4994335;28;20022;-81
2022/05/12 09:39:38;;;;;;;0.00;0.00;;;33.60;50.10;;;;;;4999728;28;20033;-80
2022/05/12 09:42:08;;;;;;;0.00;0.00;;;32.80;49.80;;;;;;4999308;28;20282;-77
2022/05/12 09:44:34;;;;;;;0.00;0.00;;;32.00;50.80;;;;;;5000359;28;20021;-78
2022/05/12 09:47:11;;;;;;;0.00;0.00;;;31.60;52.30;;;;;;5000697;28;20065;-81
2022/05/12 09:49:40;;;;;;;0.00;0.00;;;32.20;52.10;;;;;;5000312;28;20265;-81
2022/05/12 09:52:26;;;;;;;0.00;0.00;;;32.80;51.00;;;;;;4999886;28;20092;-79
2022/05/12 09:55:09;;;;;;;;;;;33.50;50.70;;;;;;5000566;28;20233;-82
2022/05/12 09:57:35;;;;;;;0.00;0.00;;;34.30;49.40;;;;;;4999959;28;19902;-77
2022/05/12 10:00:04;;;;;;;0.00;0.00;;;34.90;48.90;;;;;;4999901;28;20018;-81
2022/05/12 10:08:22;;;;;;;0.00;0.00;;;35.50;47.10;;;;;;4996969;28;20022;-79
2022/05/12 10:10:54;;;;;;;0.00;0.00;;;35.50;48.90;;;;;;5015799;28;20026;-79
2022/05/12 10:13:53;;;;;;;0.00;0.00;;;35.80;46.70;;;;;;4999277;28;20026;-82
2022/05/12 10:16:24;;;;;;;0.00;0.00;;;35.50;46.60;;;;;;4999240;28;20030;-80
2022/05/12 10:18:55;;;;;;;0.00;0.00;;;35.10;45.70;;;;;;5000226;28;20089;-83
2022/05/12 10:21:29;;;;;;;0.00;0.00;;;34.10;46.40;;;;;;4999350;28;20061;-82
2022/05/12 10:24:01;;;;;;;0.00;0.00;;;32.90;48.70;;;;;;4999846;28;20069;-80
2022/05/12 10:26:38;;;;;;;0.00;0.00;;;31.60;48.20;;;;;;5013935;28;20306;-81
2022/05/12 10:29:30;;;;;;;0.00;0.00;;;30.40;50.10;;;;;;4999725;28;20045;-80
2022/05/12 10:32:11;;;;;;;0.00;0.00;;;29.60;51.10;;;;;;4999260;28;20029;-80
2022/05/12 10:35:01;;;;;;;0.00;0.00;;;28.90;52.40;;;;;;4998128;28;20157;-80
2022/05/12 10:38:05;;;;;;;0.00;0.00;;;28.50;53.30;;;;;;4993129;28;20304;-81
2022/05/12 10:40:48;;;;;;;0.00;0.00;;;28.10;53.70;;;;;;4998720;28;20018;-80
2022/05/12 10:43:32;;;;;;;0.00;0.00;;;27.90;55.10;;;;;;5013929;28;20364;-80
2022/05/12 10:46:01;;;;;;;0.00;0.00;;;27.80;55.60;;;;;;5014071;28;20030;-81
2022/05/12 10:48:48;;;;;;;0.00;0.00;;;27.90;57.00;;;;;;4998445;28;20186;-81
2022/05/12 10:51:28;;;;;;;0.00;0.00;;;28.10;56.70;;;;;;4998606;28;20078;-77
2022/05/12 10:54:22;;;;;;;0.00;0.00;;;28.30;56.90;;;;;;4999059;28;20313;-82
2022/05/12 10:57:03;;;;;;;0.00;0.00;;;28.80;57.50;;;;;;4994310;28;20018;-81
2022/05/12 10:59:41;;;;;;;0.00;0.00;;;29.00;56.20;;;;;;4998195;28;20300;-80
2022/05/12 11:02:11;;;;;;;;;;;29.10;55.00;;;;;;4998893;28;20377;-81
2022/05/12 11:04:41;;;;;;;0.00;0.00;;;29.40;56.30;;;;;;4998624;28;19949;-81
2022/05/12 11:07:31;;;;;;;0.00;0.00;;;30.20;57.20;;;;;;4998609;28;20027;-77
2022/05/12 11:10:03;;;;;;;0.00;0.00;;;31.10;54.90;;;;;;4998519;28;20026;-81
2022/05/12 11:12:43;;;;;;;0.00;0.00;;;31.80;54.80;;;;;;4998161;28;20014;-81
2022/05/12 11:15:38;;;;;;;0.00;0.00;;;32.90;54.10;;;;;;5013434;28;20085;-78
2022/05/12 11:18:07;;;;;;;0.00;0.00;;;33.60;51.00;;;;;;4998699;28;20021;-81
2022/05/12 11:20:38;;;;;;;0.00;0.00;;;34.00;51.10;;;;;;4998627;28;20024;-82
2022/05/12 11:23:37;;;;;;;0.00;0.00;;;33.90;49.70;;;;;;4998854;28;20054;-81
2022/05/12 11:26:33;;;;;;;0.00;0.00;;;33.50;51.20;;;;;;4989725;28;20049;-80
2022/05/12 11:32:24;;;;;;;0.00;0.00;;;33.10;51.60;;;;;;4998249;28;20021;-81
2022/05/12 11:34:56;;;;;;;0.00;0.00;;;32.90;50.20;;;;;;4996810;28;20310;-81
2022/05/12 11:37:33;;;;;;;0.00;0.00;;;32.70;51.20;;;;;;5012808;28;20026;-82
2022/05/12 11:40:03;;;;;;;0.00;0.00;;;32.40;51.30;;;;;;4998215;28;20038;-82
2022/05/12 11:44:23;;;;;;;0.00;0.00;;;32.10;51.10;;;;;;4997845;28;20293;-81
2022/05/12 11:45:37;;;;;;;0.00;0.00;;;31.80;50.90;;;;;;4997753;28;20072;-82
2022/05/12 11:48:15;;;;;;;0.00;0.00;;;31.40;53.30;;;;;;4997561;28;20022;-80
2022/05/12 11:51:01;;;;;;;0.00;0.00;;;31.10;52.40;;;;;;4998499;28;20026;-80
2022/05/12 11:53:33;;;;;;;0.00;0.00;;;30.60;54.30;;;;;;4997180;28;20034;-80
2022/05/12 11:56:04;;;;;;;0.00;0.00;;;30.20;54.20;;;;;;4998641;28;20022;-80
2022/05/12 11:58:35;;;;;;;0.00;0.00;;;29.80;54.70;;;;;;5012696;28;20202;-80
2022/05/12 12:01:04;;;;;;;0.00;0.00;;;29.40;54.50;;;;;;4998571;28;20023;-80
2022/05/12 12:03:30;;;;;;;0.00;0.00;;;29.20;55.00;;;;;;4997773;28;20029;-80
2022/05/12 12:05:57;;;;;;;0.00;0.00;;;29.00;54.70;;;;;;5000532;28;20081;-78
2022/05/12 12:08:31;;;;;;;0.00;0.00;;;28.80;56.30;;;;;;5000414;28;20433;-78
2022/05/12 12:11:19;;;;;;;0.00;0.00;;;28.70;56.70;;;;;;5002176;28;20309;-81
2022/05/12 12:13:51;;;;;;;0.00;0.00;;;28.50;55.80;;;;;;5001245;28;20018;-78
2022/05/12 12:16:25;;;;;;;0.00;0.00;;;28.40;56.00;;;;;;5001205;28;20065;-80
2022/05/12 12:19:06;;;;;;;0.00;0.00;;;28.30;56.30;;;;;;5002132;28;20109;-82
2022/05/12 12:21:35;;;;;;;0.00;0.00;;;28.20;56.50;;;;;;5001700;28;20022;-80
2022/05/12 12:24:22;;;;;;;0.00;0.00;;;28.20;56.80;;;;;;5002040;28;20018;-79
2022/05/12 12:26:50;;;;;;;0.00;0.00;;;28.20;57.30;;;;;;5000285;28;20030;-83
2022/05/12 12:29:20;;;;;;;0.00;0.00;;;28.20;56.50;;;;;;5001447;28;20068;-82
2022/05/12 12:31:52;;;;;;;0.00;0.00;;;28.20;57.30;;;;;;5001341;28;20026;-82
2022/05/12 12:34:24;;;;;;;0.00;0.00;;;28.20;56.90;;;;;;4999983;28;20129;-79
2022/05/12 12:37:09;;;;;;;0.00;0.00;;;28.20;57.30;;;;;;5000154;28;20026;-79
2022/05/12 12:39:46;;;;;;;0.00;0.00;;;28.20;57.70;;;;;;5001514;28;20117;-79
2022/05/12 12:42:45;;;;;;;0.00;0.00;;;28.20;58.00;;;;;;5001092;28;20018;-80
2022/05/12 12:45:17;;;;;;;0.00;0.00;;;28.20;57.70;;;;;;4968260;28;20033;-80
2022/05/12 12:47:56;;;;;;;0.00;0.00;;;28.20;58.20;;;;;;5001237;28;20034;-81
2022/05/12 12:50:24;;;;;;;0.00;0.00;;;28.10;57.20;;;;;;5000620;28;20214;-81
2022/05/12 12:52:51;;;;;;;0.00;0.00;;;28.10;57.80;;;;;;5001432;28;20346;-81
2022/05/12 12:58:06;;;;;;;0.00;0.00;;;28.10;57.50;;;;;;5000905;28;20025;-78
2022/05/12 13:00:35;;;;;;;0.00;0.00;;;28.00;57.80;;;;;;4999909;28;20218;-78
2022/05/12 13:03:21;;;;;;;0.00;0.00;;;27.90;57.30;;;;;;5000409;28;20026;-78
2022/05/12 13:05:48;;;;;;;0.00;0.00;;;27.90;58.60;;;;;;4998989;28;20109;-79
2022/05/12 13:08:30;;;;;;;0.00;0.00;;;27.80;57.80;;;;;;4997438;28;20022;-79
2022/05/12 13:10:59;;;;;;;0.00;0.00;;;27.90;58.00;;;;;;4999092;28;20289;-80
2022/05/12 13:13:26;;;;;;;0.00;0.00;;;27.90;58.60;;;;;;4998552;28;20239;-79
2022/05/12 13:15:59;;;;;;;0.00;0.00;;;27.90;57.10;;;;;;4999192;28;20025;-79
2022/05/12 13:18:43;;;;;;;0.00;0.00;;;27.90;57.80;;;;;;4998786;28;20046;-79
2022/05/12 13:21:40;;;;;;;0.00;0.00;;;27.90;59.30;;;;;;4998805;28;20024;-82
2022/05/12 13:24:13;;;;;;;0.00;0.00;;;27.90;59.10;;;;;;4991555;28;20034;-77
2022/05/12 13:26:40;;;;;;;0.00;0.00;;;27.80;58.80;;;;;;4998799;28;20034;-81
2022/05/12 13:29:09;;;;;;;0.00;0.00;;;27.80;58.20;;;;;;4999061;28;20037;-78
2022/05/12 13:31:38;;;;;;;0.00;0.00;;;27.80;59.50;;;;;;4998224;28;20125;-79